sensor_id;sensor_type;location;lat;lon;timestamp;pressure;altitude;pressure_sealevel;temperature;humidity
10176;BME280;18221;38.704;0.152;2023-07-13T00:11:50;98798.94;;;30.80;51.85
10176;BME280;18221;38.704;0.152;2023-07-13T00:14:20;98797.00;;;30.80;51.89
10176;BME280;18221;38.704;0.152;2023-07-13T00:16:49;98806.63;;;30.63;52.37
10176;BME280;18221;38.704;0.152;2023-07-13T00:19:17;98802.78;;;30.58;52.64
10176;BME280;18221;38.704;0.152;2023-07-13T00:21:46;98793.19;;;30.41;52.92
10176;BME280;18221;38.704;0.152;2023-07-13T00:24:17;98800.03;;;30.43;52.86
10176;BME280;18221;38.704;0.152;2023-07-13T00:26:51;98801.69;;;30.49;52.94
10176;BME280;18221;38.704;0.152;2023-07-13T00:29:20;98797.84;;;30.61;52.45
10176;BME280;18221;38.704;0.152;2023-07-13T00:31:48;98795.91;;;30.56;52.35
10176;BME280;18221;38.704;0.152;2023-07-13T00:34:17;98795.66;;;30.58;52.25
10176;BME280;18221;38.704;0.152;2023-07-13T00:36:45;98806.63;;;30.58;52.18
10176;BME280;18221;38.704;0.152;2023-07-13T00:39:13;98802.78;;;30.53;52.08
10176;BME280;18221;38.704;0.152;2023-07-13T00:41:42;98794.53;;;30.48;52.27
10176;BME280;18221;38.704;0.152;2023-07-13T00:44:15;98795.91;;;30.36;52.70
10176;BME280;18221;38.704;0.152;2023-07-13T00:46:43;98797.28;;;30.43;52.54
10176;BME280;18221;38.704;0.152;2023-07-13T00:49:15;98797.56;;;30.47;52.80
10176;BME280;18221;38.704;0.152;2023-07-13T00:51:49;98802.22;;;30.51;52.39
10176;BME280;18221;38.704;0.152;2023-07-13T00:54:21;98797.03;;;30.55;52.57
10176;BME280;18221;38.704;0.152;2023-07-13T00:56:54;98795.66;;;30.47;52.60
10176;BME280;18221;38.704;0.152;2023-07-13T00:59:25;98790.69;;;30.29;53.09
10176;BME280;18221;38.704;0.152;2023-07-13T01:01:54;98787.94;;;30.34;53.33
10176;BME280;18221;38.704;0.152;2023-07-13T01:04:25;98773.75;;;30.47;53.03
10176;BME280;18221;38.704;0.152;2023-07-13T01:06:54;98778.09;;;30.38;52.94
10176;BME280;18221;38.704;0.152;2023-07-13T01:09:22;98772.31;;;30.25;53.68
10176;BME280;18221;38.704;0.152;2023-07-13T01:11:51;98766.56;;;30.21;53.47
10176;BME280;18221;38.704;0.152;2023-07-13T01:14:19;98771.25;;;30.36;53.29
10176;BME280;18221;38.704;0.152;2023-07-13T01:16:49;98768.78;;;30.34;53.21
10176;BME280;18221;38.704;0.152;2023-07-13T01:19:32;98764.94;;;30.35;52.86
10176;BME280;18221;38.704;0.152;2023-07-13T01:22:07;98768.19;;;30.22;53.15
10176;BME280;18221;38.704;0.152;2023-07-13T01:24:40;98770.19;;;30.37;52.89
10176;BME280;18221;38.704;0.152;2023-07-13T01:27:11;98770.38;;;30.05;53.57
10176;BME280;18221;38.704;0.152;2023-07-13T01:29:44;98762.16;;;30.10;53.43
10176;BME280;18221;38.704;0.152;2023-07-13T01:32:17;98765.44;;;30.07;53.34
10176;BME280;18221;38.704;0.152;2023-07-13T01:34:51;98752.88;;;30.21;53.05
10176;BME280;18221;38.704;0.152;2023-07-13T01:37:22;98763.25;;;30.19;53.27
10176;BME280;18221;38.704;0.152;2023-07-13T01:39:51;98763.00;;;30.06;53.62
10176;BME280;18221;38.704;0.152;2023-07-13T01:42:19;98761.03;;;30.06;53.69
10176;BME280;18221;38.704;0.152;2023-07-13T01:44:47;98750.66;;;29.98;53.79
10176;BME280;18221;38.704;0.152;2023-07-13T01:47:16;98762.69;;;29.97;54.13
10176;BME280;18221;38.704;0.152;2023-07-13T01:49:44;98752.25;;;29.79;54.76
10176;BME280;18221;38.704;0.152;2023-07-13T01:52:13;98746.72;;;29.74;54.69
10176;BME280;18221;38.704;0.152;2023-07-13T01:54:43;98747.88;;;29.83;54.56
10176;BME280;18221;38.704;0.152;2023-07-13T01:57:11;98743.53;;;29.92;54.40
10176;BME280;18221;38.704;0.152;2023-07-13T01:59:40;98755.00;;;29.84;54.68
10176;BME280;18221;38.704;0.152;2023-07-13T02:02:08;98739.13;;;30.01;54.18
10176;BME280;18221;38.704;0.152;2023-07-13T02:04:37;98746.25;;;29.87;54.55
10176;BME280;18221;38.704;0.152;2023-07-13T02:07:05;98747.81;;;29.78;54.40
10176;BME280;18221;38.704;0.152;2023-07-13T02:09:33;98744.53;;;29.76;54.55
10176;BME280;18221;38.704;0.152;2023-07-13T02:12:04;98739.59;;;29.68;54.78
10176;BME280;18221;38.704;0.152;2023-07-13T02:14:32;98740.50;;;29.88;53.81
10176;BME280;18221;38.704;0.152;2023-07-13T02:17:01;98742.09;;;29.74;54.46
10176;BME280;18221;38.704;0.152;2023-07-13T02:19:30;98743.38;;;29.57;54.78
10176;BME280;18221;38.704;0.152;2023-07-13T02:21:58;98741.25;;;29.69;54.63
10176;BME280;18221;38.704;0.152;2023-07-13T02:24:26;98744.53;;;29.71;54.90
10176;BME280;18221;38.704;0.152;2023-07-13T02:26:54;98742.16;;;29.89;53.96
10176;BME280;18221;38.704;0.152;2023-07-13T02:29:24;98748.91;;;29.72;54.71
10176;BME280;18221;38.704;0.152;2023-07-13T02:31:52;98746.19;;;29.77;54.41
10176;BME280;18221;38.704;0.152;2023-07-13T02:34:20;98737.13;;;29.61;54.99
10176;BME280;18221;38.704;0.152;2023-07-13T02:36:48;98737.31;;;29.45;55.34
10176;BME280;18221;38.704;0.152;2023-07-13T02:39:17;98736.81;;;29.53;55.16
10176;BME280;18221;38.704;0.152;2023-07-13T02:41:45;98747.50;;;29.59;55.38
10176;BME280;18221;38.704;0.152;2023-07-13T02:44:14;98745.56;;;29.55;55.58
10176;BME280;18221;38.704;0.152;2023-07-13T02:46:43;98744.50;;;29.56;55.11
10176;BME280;18221;38.704;0.152;2023-07-13T02:49:12;98733.78;;;29.54;55.42
10176;BME280;18221;38.704;0.152;2023-07-13T02:51:40;98742.53;;;29.46;55.13
10176;BME280;18221;38.704;0.152;2023-07-13T02:54:10;98738.19;;;29.60;54.52
10176;BME280;18221;38.704;0.152;2023-07-13T02:56:40;98749.16;;;29.65;54.71
10176;BME280;18221;38.704;0.152;2023-07-13T02:59:10;98741.78;;;29.71;54.61
10176;BME280;18221;38.704;0.152;2023-07-13T03:01:38;98739.03;;;29.61;54.53
10176;BME280;18221;38.704;0.152;2023-07-13T03:04:08;98751.38;;;29.68;54.07
10176;BME280;18221;38.704;0.152;2023-07-13T03:06:36;98741.75;;;29.61;53.79
10176;BME280;18221;38.704;0.152;2023-07-13T03:09:04;98741.59;;;29.82;53.55
10176;BME280;18221;38.704;0.152;2023-07-13T03:11:33;98740.22;;;29.80;53.56
10176;BME280;18221;38.704;0.152;2023-07-13T03:14:01;98742.31;;;29.68;53.75
10176;BME280;18221;38.704;0.152;2023-07-13T03:16:29;98743.69;;;29.70;53.56
10176;BME280;18221;38.704;0.152;2023-07-13T03:18:57;98753.25;;;29.63;53.52
10176;BME280;18221;38.704;0.152;2023-07-13T03:21:27;98750.28;;;29.74;53.42
10176;BME280;18221;38.704;0.152;2023-07-13T03:23:55;98748.06;;;29.66;53.52
10176;BME280;18221;38.704;0.152;2023-07-13T03:26:23;98757.66;;;29.69;53.32
10176;BME280;18221;38.704;0.152;2023-07-13T03:28:52;98759.84;;;29.62;53.78
10176;BME280;18221;38.704;0.152;2023-07-13T03:31:22;98760.09;;;29.60;53.92
10176;BME280;18221;38.704;0.152;2023-07-13T03:33:51;98761.47;;;29.68;53.44
10176;BME280;18221;38.704;0.152;2023-07-13T03:36:22;98763.66;;;29.66;53.80
10176;BME280;18221;38.704;0.152;2023-07-13T03:38:54;98766.72;;;29.74;53.56
10176;BME280;18221;38.704;0.152;2023-07-13T03:41:24;98763.38;;;29.67;53.44
10176;BME280;18221;38.704;0.152;2023-07-13T03:43:52;98763.03;;;29.44;53.87
10176;BME280;18221;38.704;0.152;2023-07-13T03:46:21;98759.97;;;29.25;54.68
10176;BME280;18221;38.704;0.152;2023-07-13T03:48:49;98758.13;;;29.41;54.30
10176;BME280;18221;38.704;0.152;2023-07-13T03:51:18;98761.16;;;29.59;53.98
10176;BME280;18221;38.704;0.152;2023-07-13T03:53:47;98769.13;;;29.56;54.08
10176;BME280;18221;38.704;0.152;2023-07-13T03:56:19;98776.53;;;29.65;53.55
10176;BME280;18221;38.704;0.152;2023-07-13T03:58:49;98780.47;;;29.84;53.64
10176;BME280;18221;38.704;0.152;2023-07-13T04:01:21;98786.13;;;29.73;53.82
10176;BME280;18221;38.704;0.152;2023-07-13T04:03:49;98789.50;;;29.90;53.71
10176;BME280;18221;38.704;0.152;2023-07-13T04:06:26;98787.53;;;29.80;54.17
10176;BME280;18221;38.704;0.152;2023-07-13T04:08:59;98793.84;;;29.81;54.26
10176;BME280;18221;38.704;0.152;2023-07-13T04:11:31;98793.31;;;29.79;54.43
10176;BME280;18221;38.704;0.152;2023-07-13T04:14:00;98796.81;;;29.69;54.68
10176;BME280;18221;38.704;0.152;2023-07-13T04:16:28;98799.81;;;29.73;54.33
10176;BME280;18221;38.704;0.152;2023-07-13T04:18:57;98803.88;;;29.65;54.27
10176;BME280;18221;38.704;0.152;2023-07-13T04:21:27;98810.22;;;29.76;54.46
10176;BME280;18221;38.704;0.152;2023-07-13T04:23:56;98808.47;;;29.50;54.54
10176;BME280;18221;38.704;0.152;2023-07-13T04:26:25;98832.63;;;29.68;54.46
10176;BME280;18221;38.704;0.152;2023-07-13T04:28:55;98824.69;;;29.66;54.71
10176;BME280;18221;38.704;0.152;2023-07-13T04:31:24;98836.69;;;29.55;55.37
10176;BME280;18221;38.704;0.152;2023-07-13T04:33:52;98844.47;;;29.78;55.18
10176;BME280;18221;38.704;0.152;2023-07-13T04:36:20;98845.88;;;29.86;54.71
10176;BME280;18221;38.704;0.152;2023-07-13T04:38:48;98850.53;;;29.90;54.60
10176;BME280;18221;38.704;0.152;2023-07-13T04:41:16;98852.47;;;29.85;54.66
10176;BME280;18221;38.704;0.152;2023-07-13T04:43:44;98863.56;;;29.68;55.02
10176;BME280;18221;38.704;0.152;2023-07-13T04:46:18;98856.31;;;29.94;54.38
10176;BME280;18221;38.704;0.152;2023-07-13T04:48:46;98871.63;;;29.85;54.68
10176;BME280;18221;38.704;0.152;2023-07-13T04:51:14;98870.25;;;29.82;54.51
10176;BME280;18221;38.704;0.152;2023-07-13T04:53:43;98868.53;;;29.76;54.51
10176;BME280;18221;38.704;0.152;2023-07-13T04:56:12;98877.63;;;29.82;54.01
10176;BME280;18221;38.704;0.152;2023-07-13T04:58:40;98865.06;;;29.44;55.13
10176;BME280;18221;38.704;0.152;2023-07-13T05:01:09;98879.97;;;29.63;55.08
10176;BME280;18221;38.704;0.152;2023-07-13T05:03:39;98881.66;;;29.69;54.54
10176;BME280;18221;38.704;0.152;2023-07-13T05:06:09;98883.50;;;29.59;54.33
10176;BME280;18221;38.704;0.152;2023-07-13T05:08:37;98890.41;;;29.71;54.41
10176;BME280;18221;38.704;0.152;2023-07-13T05:11:05;98900.34;;;29.82;53.73
10176;BME280;18221;38.704;0.152;2023-07-13T05:13:34;98909.47;;;30.03;53.28
10176;BME280;18221;38.704;0.152;2023-07-13T05:16:05;98916.34;;;30.11;53.08
10176;BME280;18221;38.704;0.152;2023-07-13T05:18:34;98918.97;;;29.90;53.42
10176;BME280;18221;38.704;0.152;2023-07-13T05:21:07;98923.69;;;30.00;53.80
10176;BME280;18221;38.704;0.152;2023-07-13T05:23:37;98928.38;;;30.10;53.26
10176;BME280;18221;38.704;0.152;2023-07-13T05:26:05;98941.84;;;30.16;53.39
10176;BME280;18221;38.704;0.152;2023-07-13T05:28:34;98939.09;;;30.11;53.57
10176;BME280;18221;38.704;0.152;2023-07-13T05:31:02;98940.50;;;30.24;52.83
10176;BME280;18221;38.704;0.152;2023-07-13T05:33:30;98943.88;;;30.46;52.71
10176;BME280;18221;38.704;0.152;2023-07-13T05:35:58;98947.59;;;30.25;52.61
10176;BME280;18221;38.704;0.152;2023-07-13T05:38:28;98953.38;;;30.28;52.99
10176;BME280;18221;38.704;0.152;2023-07-13T05:40:57;98959.41;;;30.25;53.08
10176;BME280;18221;38.704;0.152;2023-07-13T05:43:26;98958.41;;;30.46;52.38
10176;BME280;18221;38.704;0.152;2023-07-13T05:45:55;98955.09;;;30.39;52.32
10176;BME280;18221;38.704;0.152;2023-07-13T05:48:24;98954.47;;;30.27;52.33
10176;BME280;18221;38.704;0.152;2023-07-13T05:50:52;98964.41;;;30.38;51.92
10176;BME280;18221;38.704;0.152;2023-07-13T05:53:20;98974.88;;;30.56;51.61
10176;BME280;18221;38.704;0.152;2023-07-13T05:55:50;98972.69;;;30.64;51.51
10176;BME280;18221;38.704;0.152;2023-07-13T05:58:20;98982.56;;;30.65;51.25
10176;BME280;18221;38.704;0.152;2023-07-13T06:00:57;98988.66;;;30.87;50.60
10176;BME280;18221;38.704;0.152;2023-07-13T06:03:28;98994.13;;;30.82;51.00
10176;BME280;18221;38.704;0.152;2023-07-13T06:05:56;98998.56;;;30.93;50.47
10176;BME280;18221;38.704;0.152;2023-07-13T06:08:27;98996.59;;;30.83;50.75
10176;BME280;18221;38.704;0.152;2023-07-13T06:11:03;98994.41;;;30.85;50.82
10176;BME280;18221;38.704;0.152;2023-07-13T06:13:32;99007.25;;;30.65;51.42
10176;BME280;18221;38.704;0.152;2023-07-13T06:16:01;99010.00;;;30.70;51.55
10176;BME280;18221;38.704;0.152;2023-07-13T06:18:31;99006.22;;;30.86;51.18
10176;BME280;18221;38.704;0.152;2023-07-13T06:20:59;99026.13;;;30.56;51.43
10176;BME280;18221;38.704;0.152;2023-07-13T06:23:27;99024.81;;;30.69;51.16
10176;BME280;18221;38.704;0.152;2023-07-13T06:25:57;99026.28;;;31.06;50.29
10176;BME280;18221;38.704;0.152;2023-07-13T06:28:25;99028.50;;;31.20;49.65
10176;BME280;18221;38.704;0.152;2023-07-13T06:30:53;99027.66;;;31.14;49.07
10176;BME280;18221;38.704;0.152;2023-07-13T06:33:21;99037.28;;;31.16;48.85
10176;BME280;18221;38.704;0.152;2023-07-13T06:35:49;99041.41;;;31.19;48.11
10176;BME280;18221;38.704;0.152;2023-07-13T06:38:18;99045.81;;;31.25;47.64
10176;BME280;18221;38.704;0.152;2023-07-13T06:40:46;99051.28;;;31.35;47.33
10176;BME280;18221;38.704;0.152;2023-07-13T06:43:15;99041.94;;;31.26;47.47
10176;BME280;18221;38.704;0.152;2023-07-13T06:45:46;99054.56;;;31.22;47.85
10176;BME280;18221;38.704;0.152;2023-07-13T06:48:17;99057.84;;;31.09;48.25
10176;BME280;18221;38.704;0.152;2023-07-13T06:50:47;99057.53;;;31.00;48.68
10176;BME280;18221;38.704;0.152;2023-07-13T06:53:17;99050.44;;;31.14;48.47
10176;BME280;18221;38.704;0.152;2023-07-13T06:55:45;99061.97;;;31.22;48.40
10176;BME280;18221;38.704;0.152;2023-07-13T06:58:19;99061.97;;;31.11;48.87
10176;BME280;18221;38.704;0.152;2023-07-13T07:00:50;99057.84;;;31.14;48.95
10176;BME280;18221;38.704;0.152;2023-07-13T07:03:19;99058.41;;;31.21;48.40
10176;BME280;18221;38.704;0.152;2023-07-13T07:05:48;99062.56;;;31.34;48.22
10176;BME280;18221;38.704;0.152;2023-07-13T07:08:16;99065.53;;;31.22;48.37
10176;BME280;18221;38.704;0.152;2023-07-13T07:10:44;99072.94;;;31.11;48.04
10176;BME280;18221;38.704;0.152;2023-07-13T07:13:12;99076.81;;;31.21;48.02
10176;BME280;18221;38.704;0.152;2023-07-13T07:15:42;99074.06;;;31.15;48.07
10176;BME280;18221;38.704;0.152;2023-07-13T07:18:10;99077.88;;;31.09;48.15
10176;BME280;18221;38.704;0.152;2023-07-13T07:20:38;99075.94;;;31.00;48.27
10176;BME280;18221;38.704;0.152;2023-07-13T07:23:06;99080.91;;;31.18;47.93
10176;BME280;18221;38.704;0.152;2023-07-13T07:25:34;99080.38;;;31.31;47.46
10176;BME280;18221;38.704;0.152;2023-07-13T07:28:08;99083.19;;;31.56;46.86
10176;BME280;18221;38.704;0.152;2023-07-13T07:30:37;99078.19;;;31.38;47.13
10176;BME280;18221;38.704;0.152;2023-07-13T07:33:06;99084.00;;;31.47;46.96
10176;BME280;18221;38.704;0.152;2023-07-13T07:35:34;99084.22;;;31.35;47.34
10176;BME280;18221;38.704;0.152;2023-07-13T07:38:03;99089.72;;;31.40;47.29
10176;BME280;18221;38.704;0.152;2023-07-13T07:40:31;99093.31;;;31.51;47.15
10176;BME280;18221;38.704;0.152;2023-07-13T07:42:59;99093.88;;;31.53;47.34
10176;BME280;18221;38.704;0.152;2023-07-13T07:45:27;99095.78;;;31.52;46.99
10176;BME280;18221;38.704;0.152;2023-07-13T07:47:55;99091.97;;;31.63;46.98
10176;BME280;18221;38.704;0.152;2023-07-13T07:50:27;99101.28;;;31.57;46.55
10176;BME280;18221;38.704;0.152;2023-07-13T07:52:55;99102.94;;;31.58;46.79
10176;BME280;18221;38.704;0.152;2023-07-13T07:55:24;99101.84;;;31.74;46.32
10176;BME280;18221;38.704;0.152;2023-07-13T07:57:53;99104.06;;;31.77;46.01
10176;BME280;18221;38.704;0.152;2023-07-13T08:00:21;99098.00;;;31.60;46.67
10176;BME280;18221;38.704;0.152;2023-07-13T08:02:49;99103.97;;;31.37;47.45
10176;BME280;18221;38.704;0.152;2023-07-13T08:05:20;99100.47;;;31.62;46.96
10176;BME280;18221;38.704;0.152;2023-07-13T08:07:50;99103.47;;;31.70;46.57
10176;BME280;18221;38.704;0.152;2023-07-13T08:10:18;99106.22;;;31.45;47.04
10176;BME280;18221;38.704;0.152;2023-07-13T08:12:46;99104.06;;;31.67;46.80
10176;BME280;18221;38.704;0.152;2023-07-13T08:15:17;99109.81;;;31.71;46.24
10176;BME280;18221;38.704;0.152;2023-07-13T08:17:47;99112.53;;;31.51;46.79
10176;BME280;18221;38.704;0.152;2023-07-13T08:20:16;99113.38;;;31.76;46.54
10176;BME280;18221;38.704;0.152;2023-07-13T08:22:44;99117.78;;;31.83;46.46
10176;BME280;18221;38.704;0.152;2023-07-13T08:25:17;99113.66;;;31.85;46.12
10176;BME280;18221;38.704;0.152;2023-07-13T08:27:46;99112.53;;;31.71;46.97
10176;BME280;18221;38.704;0.152;2023-07-13T08:30:14;99111.16;;;31.68;46.66
10176;BME280;18221;38.704;0.152;2023-07-13T08:32:42;99109.25;;;31.64;46.85
10176;BME280;18221;38.704;0.152;2023-07-13T08:35:10;99121.06;;;31.85;46.34
10176;BME280;18221;38.704;0.152;2023-07-13T08:37:40;99116.13;;;31.87;46.13
10176;BME280;18221;38.704;0.152;2023-07-13T08:40:10;99117.78;;;32.03;45.78
10176;BME280;18221;38.704;0.152;2023-07-13T08:42:44;99111.19;;;31.89;46.42
10176;BME280;18221;38.704;0.152;2023-07-13T08:45:21;99123.53;;;31.96;46.36
10176;BME280;18221;38.704;0.152;2023-07-13T08:47:56;99119.38;;;32.34;45.53
10176;BME280;18221;38.704;0.152;2023-07-13T08:50:33;99119.91;;;32.61;44.69
10176;BME280;18221;38.704;0.152;2023-07-13T08:53:04;99111.84;;;32.85;43.61
10176;BME280;18221;38.704;0.152;2023-07-13T08:55:35;99121.47;;;32.82;43.24
10176;BME280;18221;38.704;0.152;2023-07-13T08:58:14;99117.09;;;32.76;43.81
10176;BME280;18221;38.704;0.152;2023-07-13T09:00:50;99120.44;;;32.68;43.87
10176;BME280;18221;38.704;0.152;2023-07-13T09:03:24;99123.44;;;32.72;44.30
10176;BME280;18221;38.704;0.152;2023-07-13T09:05:58;99119.84;;;32.76;44.79
10176;BME280;18221;38.704;0.152;2023-07-13T09:08:48;99127.72;;;32.93;43.77
10176;BME280;18221;38.704;0.152;2023-07-13T09:11:35;99129.63;;;33.03;43.45
10176;BME280;18221;38.704;0.152;2023-07-13T09:14:34;99125.84;;;32.88;43.57
10176;BME280;18221;38.704;0.152;2023-07-13T09:17:10;99124.28;;;32.62;44.20
10176;BME280;18221;38.704;0.152;2023-07-13T09:19:41;99120.09;;;32.75;44.24
10176;BME280;18221;38.704;0.152;2023-07-13T09:22:16;99126.97;;;32.87;44.31
10176;BME280;18221;38.704;0.152;2023-07-13T09:24:55;99121.69;;;32.96;44.13
10176;BME280;18221;38.704;0.152;2023-07-13T09:27:31;99110.41;;;32.97;43.87
10176;BME280;18221;38.704;0.152;2023-07-13T09:30:24;99107.91;;;33.11;43.38
10176;BME280;18221;38.704;0.152;2023-07-13T09:32:57;99109.88;;;32.95;43.31
10176;BME280;18221;38.704;0.152;2023-07-13T09:35:27;99120.88;;;32.95;43.27
10176;BME280;18221;38.704;0.152;2023-07-13T09:40:49;99115.06;;;33.02;44.05
10176;BME280;18221;38.704;0.152;2023-07-13T09:43:21;99121.63;;;33.16;43.40
10176;BME280;18221;38.704;0.152;2023-07-13T09:45:51;99113.81;;;33.33;42.56
10176;BME280;18221;38.704;0.152;2023-07-13T09:48:19;99127.72;;;33.57;41.96
10176;BME280;18221;38.704;0.152;2023-07-13T09:50:48;99131.44;;;33.27;42.93
10176;BME280;18221;38.704;0.152;2023-07-13T09:53:19;99135.91;;;33.18;43.62
10176;BME280;18221;38.704;0.152;2023-07-13T09:55:49;99135.59;;;33.25;43.70
10176;BME280;18221;38.704;0.152;2023-07-13T09:58:20;99123.88;;;33.58;42.78
10176;BME280;18221;38.704;0.152;2023-07-13T10:01:02;99127.91;;;33.71;41.84
10176;BME280;18221;38.704;0.152;2023-07-13T10:03:33;99135.28;;;33.75;41.83
10176;BME280;18221;38.704;0.152;2023-07-13T10:06:14;99120.47;;;33.71;40.92
10176;BME280;18221;38.704;0.152;2023-07-13T10:08:45;99129.34;;;33.63;40.74
10176;BME280;18221;38.704;0.152;2023-07-13T10:11:20;99130.47;;;33.52;41.13
10176;BME280;18221;38.704;0.152;2023-07-13T10:13:52;99127.94;;;33.99;40.14
10176;BME280;18221;38.704;0.152;2023-07-13T10:16:28;99125.50;;;33.93;40.92
10176;BME280;18221;38.704;0.152;2023-07-13T10:19:02;99131.34;;;33.86;40.78
10176;BME280;18221;38.704;0.152;2023-07-13T10:21:37;99138.09;;;33.70;40.41
10176;BME280;18221;38.704;0.152;2023-07-13T10:24:15;99129.78;;;33.75;41.52
10176;BME280;18221;38.704;0.152;2023-07-13T10:26:57;99136.31;;;33.84;40.44
10176;BME280;18221;38.704;0.152;2023-07-13T10:29:29;99137.72;;;34.15;39.86
10176;BME280;18221;38.704;0.152;2023-07-13T10:32:02;99136.59;;;34.17;40.04
10176;BME280;18221;38.704;0.152;2023-07-13T10:34:31;99135.97;;;34.25;40.04
10176;BME280;18221;38.704;0.152;2023-07-13T10:37:01;99132.97;;;34.21;40.23
10176;BME280;18221;38.704;0.152;2023-07-13T10:39:33;99138.81;;;34.72;38.93
10176;BME280;18221;38.704;0.152;2023-07-13T10:42:06;99141.91;;;34.89;38.69
10176;BME280;18221;38.704;0.152;2023-07-13T10:44:39;99133.81;;;34.74;39.17
10176;BME280;18221;38.704;0.152;2023-07-13T10:47:15;99130.41;;;34.82;39.15
10176;BME280;18221;38.704;0.152;2023-07-13T10:49:46;99140.94;;;34.80;39.29
10176;BME280;18221;38.704;0.152;2023-07-13T10:52:44;99136.25;;;34.57;38.61
10176;BME280;18221;38.704;0.152;2023-07-13T10:55:35;99138.72;;;34.53;39.00
10176;BME280;18221;38.704;0.152;2023-07-13T10:58:14;99138.16;;;34.80;39.26
10176;BME280;18221;38.704;0.152;2023-07-13T11:00:56;99137.66;;;34.49;39.04
10176;BME280;18221;38.704;0.152;2023-07-13T11:03:28;99134.31;;;34.52;39.53
10176;BME280;18221;38.704;0.152;2023-07-13T11:06:09;99134.22;;;34.86;38.49
10176;BME280;18221;38.704;0.152;2023-07-13T11:08:55;99134.91;;;34.73;38.77
10176;BME280;18221;38.704;0.152;2023-07-13T11:11:38;99141.63;;;34.91;38.72
10176;BME280;18221;38.704;0.152;2023-07-13T11:14:35;99136.44;;;34.84;39.12
10176;BME280;18221;38.704;0.152;2023-07-13T11:17:37;99141.84;;;34.94;39.14
10176;BME280;18221;38.704;0.152;2023-07-13T11:20:39;99150.94;;;34.95;39.04
10176;BME280;18221;38.704;0.152;2023-07-13T11:23:42;99154.06;;;34.88;39.40
10176;BME280;18221;38.704;0.152;2023-07-13T11:26:42;99159.16;;;35.00;39.05
10176;BME280;18221;38.704;0.152;2023-07-13T11:29:27;99155.00;;;35.02;39.35
10176;BME280;18221;38.704;0.152;2023-07-13T11:32:21;99147.16;;;34.91;39.88
10176;BME280;18221;38.704;0.152;2023-07-13T11:34:51;99145.38;;;34.76;39.83
10176;BME280;18221;38.704;0.152;2023-07-13T11:37:23;99142.31;;;34.54;40.69
10176;BME280;18221;38.704;0.152;2023-07-13T11:39:52;99135.13;;;34.53;40.50
10176;BME280;18221;38.704;0.152;2023-07-13T11:42:21;99142.94;;;34.46;40.99
10176;BME280;18221;38.704;0.152;2023-07-13T11:44:53;99135.13;;;34.53;40.97
10176;BME280;18221;38.704;0.152;2023-07-13T11:47:23;99136.69;;;34.64;40.92
10176;BME280;18221;38.704;0.152;2023-07-13T11:49:55;99135.34;;;34.61;41.04
10176;BME280;18221;38.704;0.152;2023-07-13T11:52:33;99134.53;;;34.61;40.67
10176;BME280;18221;38.704;0.152;2023-07-13T11:55:14;99134.59;;;34.56;40.39
10176;BME280;18221;38.704;0.152;2023-07-13T11:57:47;99131.75;;;34.61;40.74
10176;BME280;18221;38.704;0.152;2023-07-13T12:00:22;99136.63;;;34.69;40.65
10176;BME280;18221;38.704;0.152;2023-07-13T12:02:57;99132.00;;;34.88;39.80
10176;BME280;18221;38.704;0.152;2023-07-13T12:05:27;99126.84;;;35.05;39.72
10176;BME280;18221;38.704;0.152;2023-07-13T12:07:58;99131.28;;;35.25;39.64
10176;BME280;18221;38.704;0.152;2023-07-13T12:10:28;99125.97;;;35.28;39.04
10176;BME280;18221;38.704;0.152;2023-07-13T12:13:01;99112.22;;;35.42;38.52
10176;BME280;18221;38.704;0.152;2023-07-13T12:15:37;99118.13;;;35.35;38.15
10176;BME280;18221;38.704;0.152;2023-07-13T12:18:14;99110.06;;;35.39;37.98
10176;BME280;18221;38.704;0.152;2023-07-13T12:20:44;99111.03;;;35.29;37.63
10176;BME280;18221;38.704;0.152;2023-07-13T12:23:29;99111.25;;;35.33;38.37
10176;BME280;18221;38.704;0.152;2023-07-13T12:26:00;99112.97;;;35.48;38.61
10176;BME280;18221;38.704;0.152;2023-07-13T12:28:35;99106.63;;;35.47;37.59
10176;BME280;18221;38.704;0.152;2023-07-13T12:31:06;99097.84;;;35.64;37.38
10176;BME280;18221;38.704;0.152;2023-07-13T12:33:35;99096.78;;;35.60;37.58
10176;BME280;18221;38.704;0.152;2023-07-13T12:36:06;99098.84;;;35.49;36.86
10176;BME280;18221;38.704;0.152;2023-07-13T12:38:36;99086.53;;;35.79;37.99
10176;BME280;18221;38.704;0.152;2023-07-13T12:41:04;99085.56;;;35.70;37.93
10176;BME280;18221;38.704;0.152;2023-07-13T12:43:36;99081.38;;;35.72;37.16
10176;BME280;18221;38.704;0.152;2023-07-13T12:46:16;99090.41;;;35.78;37.10
10176;BME280;18221;38.704;0.152;2023-07-13T12:48:48;99080.59;;;35.72;36.86
10176;BME280;18221;38.704;0.152;2023-07-13T12:51:17;99086.72;;;35.82;36.96
10176;BME280;18221;38.704;0.152;2023-07-13T12:53:56;99077.75;;;35.90;36.43
10176;BME280;18221;38.704;0.152;2023-07-13T12:56:28;99083.03;;;35.73;36.34
10176;BME280;18221;38.704;0.152;2023-07-13T12:59:01;99084.06;;;35.77;36.50
10176;BME280;18221;38.704;0.152;2023-07-13T13:01:35;99088.78;;;35.77;36.27
10176;BME280;18221;38.704;0.152;2023-07-13T13:04:04;99088.34;;;35.70;35.88
10176;BME280;18221;38.704;0.152;2023-07-13T13:06:35;99092.41;;;35.59;36.27
10176;BME280;18221;38.704;0.152;2023-07-13T13:09:12;99093.19;;;35.59;36.42
10176;BME280;18221;38.704;0.152;2023-07-13T13:11:41;99090.22;;;35.74;36.28
10176;BME280;18221;38.704;0.152;2023-07-13T13:14:09;99094.63;;;35.57;36.97
10176;BME280;18221;38.704;0.152;2023-07-13T13:16:47;99081.94;;;35.56;36.73
10176;BME280;18221;38.704;0.152;2023-07-13T13:19:21;99076.25;;;35.66;36.58
10176;BME280;18221;38.704;0.152;2023-07-13T13:21:51;99082.00;;;35.69;36.65
10176;BME280;18221;38.704;0.152;2023-07-13T13:24:23;99088.09;;;35.85;36.35
10176;BME280;18221;38.704;0.152;2023-07-13T13:26:53;99083.19;;;35.82;36.06
10176;BME280;18221;38.704;0.152;2023-07-13T13:29:24;99086.13;;;35.85;36.01
10176;BME280;18221;38.704;0.152;2023-07-13T13:31:53;99085.75;;;35.92;35.84
10176;BME280;18221;38.704;0.152;2023-07-13T13:34:24;99081.41;;;36.05;35.37
10176;BME280;18221;38.704;0.152;2023-07-13T13:36:53;99076.31;;;35.93;35.80